createdAt,value
2022-11-28T00:00:46.601Z,50.80
2022-11-28T00:01:46.648Z,43.62
2022-11-28T00:02:46.768Z,50.03
2022-11-28T00:03:47.574Z,43.89
2022-11-28T00:04:46.545Z,50.74
2022-11-28T00:05:47.141Z,43.96
2022-11-28T00:06:47.549Z,46.70
2022-11-28T00:07:46.539Z,53.89
2022-11-28T00:08:46.525Z,49.91
2022-11-28T00:09:46.493Z,46.97
2022-11-28T00:10:46.492Z,53.15
2022-11-28T00:11:46.476Z,52.21
2022-11-28T00:12:46.462Z,43.83
2022-11-28T00:13:46.469Z,44.16
2022-11-28T00:14:46.510Z,55.72
2022-11-28T00:15:46.467Z,56.25
2022-11-28T00:16:46.449Z,48.61
2022-11-28T00:17:46.426Z,49.44
2022-11-28T00:18:46.487Z,44.55
2022-11-28T00:19:46.442Z,52.78
2022-11-28T00:20:46.401Z,53.71
2022-11-28T00:21:46.377Z,52.64
2022-11-28T00:22:46.371Z,50.98
2022-11-28T00:23:46.389Z,52.33
2022-11-28T00:24:46.344Z,48.53
2022-11-28T00:25:46.334Z,51.57
2022-11-28T00:26:46.351Z,44.28
2022-11-28T00:27:46.315Z,46.43
2022-11-28T00:28:46.321Z,52.40
2022-11-28T00:29:46.306Z,52.43
2022-11-28T00:30:46.346Z,48.53
2022-11-28T00:31:46.348Z,44.04
2022-11-28T00:32:46.272Z,49.72
2022-11-28T00:33:46.275Z,46.97
2022-11-28T00:34:46.327Z,45.43
2022-11-28T00:35:46.272Z,62.55
2022-11-28T00:36:46.275Z,47.99
2022-11-28T00:37:46.228Z,47.62
2022-11-28T00:38:46.250Z,45.84
2022-11-28T00:39:46.203Z,47.56
2022-11-28T00:40:46.228Z,55.05
2022-11-28T00:41:46.184Z,44.66
2022-11-28T00:42:46.178Z,48.45
2022-11-28T00:43:46.178Z,53.77
2022-11-28T00:44:46.179Z,56.86
2022-11-28T00:45:46.209Z,53.72
2022-11-28T00:46:46.151Z,51.82
2022-11-28T00:47:46.142Z,51.35
2022-11-28T00:48:46.129Z,51.79
2022-11-28T00:49:46.142Z,47.36
2022-11-28T00:50:46.203Z,54.45
2022-11-28T00:51:46.140Z,51.59
2022-11-28T00:52:46.085Z,45.84
2022-11-28T00:53:46.076Z,44.27
2022-11-28T00:54:46.058Z,43.90
2022-11-28T00:55:46.076Z,44.22
2022-11-28T00:56:46.086Z,44.38
2022-11-28T00:57:46.039Z,45.10
2022-11-28T00:58:46.019Z,47.17
2022-11-28T00:59:46.015Z,51.33
2022-11-28T01:00:46.068Z,49.17
2022-11-28T01:01:46.144Z,44.39
2022-11-28T01:02:46.079Z,44.96
2022-11-28T01:03:45.985Z,51.12
2022-11-28T01:04:45.963Z,62.01
2022-11-28T01:05:45.959Z,45.33
2022-11-28T01:06:46.036Z,46.32
2022-11-28T01:07:46.026Z,54.50
2022-11-28T01:08:45.920Z,62.13
2022-11-28T01:09:45.903Z,46.55
2022-11-28T01:10:45.900Z,50.43
2022-11-28T01:11:45.904Z,50.26
2022-11-28T01:12:45.891Z,49.38
2022-11-28T01:13:45.894Z,55.07
2022-11-28T01:14:45.907Z,46.82
2022-11-28T01:15:45.856Z,43.68
2022-11-28T01:16:45.907Z,44.89
2022-11-28T01:17:45.830Z,43.91
2022-11-28T01:18:45.837Z,43.96
2022-11-28T01:19:45.804Z,48.14
2022-11-28T01:20:45.814Z,44.96
2022-11-28T01:21:45.824Z,45.92
2022-11-28T01:22:45.870Z,52.01
2022-11-28T01:23:45.765Z,43.86
2022-11-28T01:24:45.802Z,46.40
2022-11-28T01:25:45.760Z,57.37
2022-11-28T01:26:45.759Z,56.04
2022-11-28T01:27:45.730Z,46.47
2022-11-28T01:28:45.781Z,52.46
2022-11-28T01:29:45.710Z,48.07
2022-11-28T01:30:45.745Z,47.64
2022-11-28T01:31:45.750Z,46.29
2022-11-28T01:32:45.691Z,51.46
2022-11-28T01:33:45.706Z,47.52
2022-11-28T01:34:45.671Z,57.44
2022-11-28T01:35:45.665Z,49.41
2022-11-28T01:36:45.647Z,46.49
2022-11-28T01:37:45.648Z,45.03
2022-11-28T01:38:45.728Z,45.91
2022-11-28T01:39:45.640Z,45.86
2022-11-28T01:40:45.652Z,46.57
2022-11-28T01:41:45.601Z,47.45
2022-11-28T01:42:45.633Z,53.06
2022-11-28T01:43:45.568Z,54.13
2022-11-28T01:44:45.557Z,47.12
2022-11-28T01:45:45.555Z,49.93
2022-11-28T01:46:45.650Z,51.05
2022-11-28T01:47:45.587Z,45.94
2022-11-28T01:48:45.525Z,46.27
2022-11-28T01:49:45.513Z,49.07
2022-11-28T01:50:45.504Z,51.36
2022-11-28T01:51:45.507Z,47.11
2022-11-28T01:52:45.498Z,49.92
2022-11-28T01:53:45.518Z,51.23
2022-11-28T01:54:45.554Z,45.98
2022-11-28T01:55:45.486Z,47.90
2022-11-28T01:56:45.470Z,45.23
2022-11-28T01:57:45.464Z,45.33
2022-11-28T01:58:45.451Z,45.65
2022-11-28T01:59:45.426Z,55.97
2022-11-28T02:00:45.482Z,47.41
2022-11-28T02:01:45.455Z,45.93
2022-11-28T02:02:45.428Z,54.57
2022-11-28T02:03:45.387Z,48.16
2022-11-28T02:04:45.411Z,56.88
2022-11-28T02:05:45.394Z,55.73
2022-11-28T02:06:45.348Z,51.69
2022-11-28T02:07:45.456Z,48.17
2022-11-28T02:08:45.345Z,47.85
2022-11-28T02:09:45.353Z,44.51
2022-11-28T02:10:45.456Z,48.14
2022-11-28T02:11:45.307Z,49.56
2022-11-28T02:12:45.315Z,56.30
2022-11-28T02:13:45.325Z,49.55
2022-11-28T02:14:45.300Z,51.84
2022-11-28T02:15:45.280Z,48.97
2022-11-28T02:16:45.376Z,62.24
2022-11-28T02:17:45.266Z,56.46
2022-11-28T02:18:50.304Z,54.79
2022-11-28T02:19:46.243Z,51.42
2022-11-28T02:20:45.238Z,56.17
2022-11-28T02:21:45.229Z,46.02
2022-11-28T02:22:45.186Z,45.79
2022-11-28T02:23:45.222Z,52.28
2022-11-28T02:24:45.212Z,54.49
2022-11-28T02:25:45.172Z,56.77
2022-11-28T02:26:45.260Z,49.08
2022-11-28T02:27:45.179Z,52.41
2022-11-28T02:28:45.150Z,55.85
2022-11-28T02:29:45.160Z,61.15
2022-11-28T02:30:45.139Z,53.34
2022-11-28T02:31:45.175Z,55.32
2022-11-28T02:32:45.098Z,66.64
2022-11-28T02:33:45.097Z,53.44
2022-11-28T02:34:47.155Z,44.71
2022-11-28T02:35:46.094Z,44.47
2022-11-28T02:36:45.081Z,49.82
2022-11-28T02:37:45.076Z,50.78
2022-11-28T02:38:45.056Z,52.89
2022-11-28T02:39:45.057Z,51.53
2022-11-28T02:40:45.053Z,45.10
2022-11-28T02:41:45.037Z,44.93
2022-11-28T02:42:45.106Z,47.48
2022-11-28T02:43:45.011Z,45.78
2022-11-28T02:44:45.311Z,54.46
2022-11-28T02:45:44.986Z,53.76
2022-11-28T02:46:45.043Z,44.81
2022-11-28T02:47:44.966Z,49.83
2022-11-28T02:48:44.964Z,47.39
2022-11-28T02:49:44.980Z,47.61
2022-11-28T02:50:44.979Z,49.83
2022-11-28T02:51:44.939Z,54.20
2022-11-28T02:52:44.925Z,47.25
2022-11-28T02:53:44.902Z,52.83
2022-11-28T02:54:45.050Z,50.10
2022-11-28T02:55:44.918Z,58.50
2022-11-28T02:56:44.881Z,59.56
2022-11-28T02:57:44.900Z,54.96
2022-11-28T02:58:44.942Z,48.71
2022-11-28T02:59:44.876Z,49.58
2022-11-28T03:00:44.984Z,51.81
2022-11-28T03:01:44.897Z,47.75
2022-11-28T03:02:44.831Z,50.08
2022-11-28T03:03:44.824Z,51.63
2022-11-28T03:04:45.053Z,46.97
2022-11-28T03:05:44.799Z,47.24
2022-11-28T03:06:44.799Z,54.30
2022-11-28T03:07:44.857Z,57.75
2022-11-28T03:08:44.781Z,47.79
2022-11-28T03:09:44.760Z,52.64
2022-11-28T03:10:44.807Z,55.07
2022-11-28T03:11:44.775Z,58.74
2022-11-28T03:12:44.731Z,54.69
2022-11-28T03:13:44.731Z,44.45
2022-11-28T03:14:44.961Z,50.47
2022-11-28T03:15:44.708Z,51.43
2022-11-28T03:16:44.764Z,48.98
2022-11-28T03:17:44.712Z,53.95
2022-11-28T03:19:16.545Z,48.96
2022-11-28T03:19:44.638Z,45.50
2022-11-28T03:20:44.625Z,51.55
2022-11-28T03:21:44.635Z,48.59
2022-11-28T03:22:44.617Z,44.87
2022-11-28T03:23:44.601Z,46.43
2022-11-28T03:24:44.844Z,52.61
2022-11-28T03:25:44.587Z,61.93
2022-11-28T03:26:44.585Z,52.70
2022-11-28T03:27:44.547Z,52.96
2022-11-28T03:28:44.561Z,65.57
2022-11-28T03:29:44.544Z,51.76
2022-11-28T03:30:44.592Z,56.27
2022-11-28T03:31:44.597Z,50.44
2022-11-28T03:32:44.549Z,55.22
2022-11-28T03:33:44.496Z,49.33
2022-11-28T03:34:44.783Z,50.80
2022-11-28T03:35:44.486Z,55.38
2022-11-28T03:36:44.475Z,50.12
2022-11-28T03:37:44.479Z,48.30
2022-11-28T03:38:44.459Z,46.95
2022-11-28T03:39:44.455Z,55.02
2022-11-28T03:40:44.452Z,53.30
2022-11-28T03:41:44.436Z,54.18
2022-11-28T03:42:44.408Z,55.69
2022-11-28T03:43:44.407Z,48.31
2022-11-28T03:44:44.679Z,52.34
2022-11-28T03:45:44.399Z,54.80
2022-11-28T03:46:44.521Z,58.65
2022-11-28T03:47:44.367Z,60.77
2022-11-28T03:48:44.392Z,57.18
2022-11-28T03:49:44.351Z,58.65
2022-11-28T03:50:44.335Z,56.27
2022-11-28T03:51:44.350Z,65.55
2022-11-28T03:52:44.324Z,49.17
2022-11-28T03:53:44.323Z,52.69
2022-11-28T03:54:44.611Z,57.19
2022-11-28T03:55:44.338Z,58.61
2022-11-28T03:56:44.277Z,58.73
2022-11-28T03:57:44.293Z,54.04
2022-11-28T03:58:44.265Z,54.56
2022-11-28T03:59:44.257Z,57.46
2022-11-28T04:00:44.290Z,59.69
2022-11-28T04:01:44.232Z,57.07
2022-11-28T04:02:44.401Z,55.56
2022-11-28T04:03:44.220Z,58.49
2022-11-28T04:04:44.458Z,56.26
2022-11-28T04:05:44.200Z,53.03
2022-11-28T04:06:44.225Z,56.71
2022-11-28T04:07:44.256Z,54.54
2022-11-28T04:08:44.180Z,56.51
2022-11-28T04:09:44.193Z,55.98
2022-11-28T04:10:44.168Z,58.06
2022-11-28T04:11:44.155Z,58.28
2022-11-28T04:12:44.140Z,57.31
2022-11-28T04:13:44.124Z,55.67
2022-11-28T04:14:44.435Z,53.67
2022-11-28T04:15:44.132Z,55.08
2022-11-28T04:16:45.587Z,57.09
2022-11-28T04:17:44.102Z,63.46
2022-11-28T04:18:44.162Z,60.17
2022-11-28T04:19:44.078Z,57.75
2022-11-28T04:20:44.087Z,56.44
2022-11-28T04:21:44.054Z,61.27
2022-11-28T04:22:44.050Z,58.37
2022-11-28T04:23:44.040Z,58.15
2022-11-28T04:24:44.259Z,58.53
2022-11-28T04:25:44.002Z,57.32
2022-11-28T04:26:44.013Z,56.43
2022-11-28T04:27:44.026Z,58.53
2022-11-28T04:28:43.997Z,56.97
2022-11-28T04:29:43.960Z,57.55
2022-11-28T04:30:43.958Z,61.51
2022-11-28T04:31:44.001Z,55.50
2022-11-28T04:32:43.952Z,56.81
2022-11-28T04:33:43.962Z,54.69
2022-11-28T04:34:44.277Z,58.32
2022-11-28T04:35:43.939Z,62.17
2022-11-28T04:36:43.911Z,58.65
2022-11-28T04:37:43.883Z,58.19
2022-11-28T04:38:43.901Z,56.68
2022-11-28T04:39:43.872Z,58.78
2022-11-28T04:40:43.854Z,58.99
2022-11-28T04:41:43.843Z,58.31
2022-11-28T04:42:44.983Z,57.34
2022-11-28T04:43:43.832Z,58.11
2022-11-28T04:44:44.117Z,59.00
2022-11-28T04:45:43.827Z,57.37
2022-11-28T04:46:43.813Z,57.46
2022-11-28T04:47:43.788Z,58.31
2022-11-28T04:48:43.788Z,61.11
2022-11-28T04:49:43.765Z,57.83
2022-11-28T04:50:43.856Z,57.39
2022-11-28T04:51:43.772Z,60.21
2022-11-28T04:52:43.729Z,56.72
2022-11-28T04:53:44.733Z,60.42
2022-11-28T04:54:43.864Z,57.88
2022-11-28T04:55:43.711Z,60.85
2022-11-28T04:56:43.711Z,60.53
2022-11-28T04:57:43.742Z,57.22
2022-11-28T04:58:43.721Z,59.19
2022-11-28T04:59:43.680Z,57.80
2022-11-28T05:00:43.757Z,59.73
2022-11-28T05:01:43.695Z,57.93
2022-11-28T05:02:43.652Z,56.81
2022-11-28T05:03:43.648Z,56.23
2022-11-28T05:04:43.804Z,57.27
2022-11-28T05:05:43.657Z,56.91
2022-11-28T05:06:43.689Z,56.31
2022-11-28T05:07:43.645Z,56.16
2022-11-28T05:08:43.601Z,57.92
2022-11-28T05:09:43.571Z,56.23
2022-11-28T05:10:43.572Z,56.97
2022-11-28T05:11:43.595Z,56.79
2022-11-28T05:12:43.546Z,56.30
2022-11-28T05:13:43.535Z,58.23
2022-11-28T05:14:43.784Z,60.01
2022-11-28T05:15:43.521Z,58.66
2022-11-28T05:16:43.663Z,58.26
2022-11-28T05:17:43.499Z,56.52
2022-11-28T05:18:43.492Z,58.35
2022-11-28T05:19:43.504Z,58.61
2022-11-28T05:20:43.519Z,57.60
2022-11-28T05:21:43.467Z,59.08
2022-11-28T05:22:43.554Z,58.46
2022-11-28T05:23:43.451Z,59.35
2022-11-28T05:24:43.518Z,59.25
2022-11-28T05:25:43.429Z,60.70
2022-11-28T05:26:43.426Z,59.63
2022-11-28T05:27:43.447Z,61.85
2022-11-28T05:28:43.398Z,59.31
2022-11-28T05:29:46.853Z,69.10
2022-11-28T05:30:43.382Z,60.51
2022-11-28T05:31:43.450Z,59.53
2022-11-28T05:32:43.408Z,61.06
2022-11-28T05:33:43.355Z,58.56
2022-11-28T05:34:43.532Z,58.59
2022-11-28T05:35:43.351Z,61.05
2022-11-28T05:36:43.325Z,60.40
2022-11-28T05:37:43.351Z,60.86
2022-11-28T05:38:43.378Z,60.86
2022-11-28T05:39:43.606Z,59.44
2022-11-28T05:40:43.322Z,62.13
2022-11-28T05:41:43.295Z,60.07
2022-11-28T05:42:44.304Z,59.13
2022-11-28T05:43:43.258Z,60.32
2022-11-28T05:44:43.239Z,60.53
2022-11-28T05:45:43.320Z,60.04
2022-11-28T05:46:43.232Z,59.30
2022-11-28T05:47:43.230Z,59.34
2022-11-28T05:48:43.217Z,60.37
2022-11-28T05:49:43.459Z,60.10
2022-11-28T05:50:43.208Z,58.83
2022-11-28T05:51:43.195Z,61.30
2022-11-28T05:52:43.181Z,60.32
2022-11-28T05:53:43.162Z,59.69
2022-11-28T05:54:43.222Z,59.61
2022-11-28T05:55:43.144Z,60.82
2022-11-28T05:56:43.154Z,61.03
2022-11-28T05:57:43.122Z,60.75
2022-11-28T05:58:43.114Z,60.38
2022-11-28T05:59:43.257Z,59.76
2022-11-28T06:00:43.115Z,59.84
2022-11-28T06:01:43.137Z,59.03
2022-11-28T06:02:43.099Z,61.17
2022-11-28T06:03:43.067Z,59.71
2022-11-28T06:04:43.100Z,60.12
2022-11-28T06:05:43.849Z,60.16
2022-11-28T06:06:44.035Z,60.11
2022-11-28T06:07:43.093Z,61.15
2022-11-28T06:08:43.019Z,60.04
2022-11-28T06:09:43.291Z,59.67
2022-11-28T06:10:43.096Z,59.58
2022-11-28T06:11:42.986Z,60.60
2022-11-28T06:12:42.989Z,60.54
2022-11-28T06:13:42.984Z,61.76
2022-11-28T06:14:42.973Z,60.54
2022-11-28T06:15:43.971Z,61.26
2022-11-28T06:16:42.987Z,61.00
2022-11-28T06:17:42.933Z,61.87
2022-11-28T06:18:42.911Z,59.29
2022-11-28T06:19:43.243Z,59.80
2022-11-28T06:20:42.911Z,60.20
2022-11-28T06:21:42.902Z,61.04
2022-11-28T06:22:42.886Z,59.43
2022-11-28T06:23:42.864Z,61.93
2022-11-28T06:24:43.858Z,61.74
2022-11-28T06:25:42.844Z,61.54
2022-11-28T06:26:42.947Z,59.32
2022-11-28T06:27:42.831Z,60.18
2022-11-28T06:28:42.831Z,59.81
2022-11-28T06:29:42.980Z,61.00
2022-11-28T06:30:42.820Z,60.65
2022-11-28T06:31:42.891Z,60.25
2022-11-28T06:32:42.777Z,60.68
2022-11-28T06:33:42.791Z,60.65
2022-11-28T06:34:42.762Z,61.82
2022-11-28T06:35:42.773Z,68.92
2022-11-28T06:36:42.782Z,60.85
2022-11-28T06:37:42.733Z,61.37
2022-11-28T06:38:42.742Z,60.83
2022-11-28T06:39:43.018Z,60.05
2022-11-28T06:40:42.710Z,65.95
2022-11-28T06:41:42.698Z,61.28
2022-11-28T06:42:42.766Z,60.96
2022-11-28T06:43:42.722Z,60.74
2022-11-28T06:44:42.682Z,62.07
2022-11-28T06:45:42.795Z,62.16
2022-11-28T06:46:42.658Z,64.60
2022-11-28T06:47:42.633Z,61.47
2022-11-28T06:48:42.633Z,62.24
2022-11-28T06:49:42.839Z,63.47
2022-11-28T06:50:42.616Z,61.65
2022-11-28T06:51:42.600Z,61.00
2022-11-28T06:52:42.611Z,60.43
2022-11-28T06:53:42.589Z,60.47
2022-11-28T06:54:42.617Z,60.06
2022-11-28T06:55:42.560Z,60.72
2022-11-28T06:56:42.563Z,61.07
2022-11-28T06:57:42.545Z,61.39
2022-11-28T06:58:42.616Z,61.66
2022-11-28T06:59:42.802Z,61.43
2022-11-28T07:00:42.559Z,61.27
2022-11-28T07:01:42.570Z,63.19
2022-11-28T07:02:42.632Z,62.15
2022-11-28T07:03:42.480Z,61.11
2022-11-28T07:04:42.494Z,61.10
2022-11-28T07:05:42.474Z,61.30
2022-11-28T07:06:42.514Z,60.62
2022-11-28T07:07:53.555Z,60.86
2022-11-28T07:08:43.450Z,60.47
2022-11-28T07:09:42.621Z,60.90
2022-11-28T07:10:42.423Z,67.33
2022-11-28T07:11:42.432Z,62.09
2022-11-28T07:12:42.401Z,60.43
2022-11-28T07:13:42.395Z,60.53
2022-11-28T07:14:42.472Z,60.63
2022-11-28T07:15:42.374Z,61.17
2022-11-28T07:16:42.430Z,62.34
2022-11-28T07:17:42.375Z,60.89
2022-11-28T07:18:42.348Z,61.08
2022-11-28T07:19:42.513Z,59.70
2022-11-28T07:20:42.324Z,60.65
2022-11-28T07:21:42.333Z,61.40
2022-11-28T07:22:42.307Z,59.99
2022-11-28T07:23:42.311Z,62.61
2022-11-28T07:24:42.292Z,60.61
2022-11-28T07:25:42.291Z,61.88
2022-11-28T07:26:42.278Z,61.47
2022-11-28T07:27:42.259Z,60.22
2022-11-28T07:28:42.243Z,61.22
2022-11-28T07:29:42.504Z,61.50
2022-11-28T07:30:42.295Z,59.71
2022-11-28T07:31:42.243Z,61.60
2022-11-28T07:32:42.207Z,60.75
2022-11-28T07:33:42.210Z,61.76
2022-11-28T07:34:43.861Z,60.07
2022-11-28T07:35:42.171Z,59.20
2022-11-28T07:36:42.198Z,60.12
2022-11-28T07:37:42.160Z,60.03
2022-11-28T07:38:42.143Z,62.37
2022-11-28T07:39:42.441Z,59.31
2022-11-28T07:40:42.127Z,59.53
2022-11-28T07:41:42.130Z,58.97
2022-11-28T07:42:42.111Z,60.01
2022-11-28T07:43:42.093Z,61.90
2022-11-28T07:44:42.065Z,59.53
2022-11-28T07:45:59.854Z,60.55
2022-11-28T07:46:44.175Z,61.45
2022-11-28T07:47:42.085Z,59.68
2022-11-28T07:48:42.042Z,58.80
2022-11-28T07:49:42.359Z,59.97
2022-11-28T07:50:42.034Z,59.69
2022-11-28T07:51:42.036Z,60.37
2022-11-28T07:52:42.062Z,59.49
2022-11-28T07:53:41.999Z,60.35
2022-11-28T07:54:41.981Z,61.04
2022-11-28T07:55:42.010Z,61.16
2022-11-28T07:57:11.811Z,60.22
2022-11-28T07:57:43.967Z,59.59
2022-11-28T07:58:41.955Z,59.10
2022-11-28T07:59:42.288Z,60.53
2022-11-28T08:00:41.940Z,60.23
2022-11-28T08:01:42.004Z,59.41
2022-11-28T08:02:41.919Z,58.34
2022-11-28T08:03:41.897Z,60.72
2022-11-28T08:04:48.591Z,61.04
2022-11-28T08:05:43.886Z,61.63
2022-11-28T08:06:41.887Z,58.91
2022-11-28T08:07:41.943Z,59.82
2022-11-28T08:08:41.858Z,60.47
2022-11-28T08:09:42.284Z,60.97
2022-11-28T08:10:41.849Z,59.17
2022-11-28T08:11:41.850Z,59.72
2022-11-28T08:12:41.817Z,61.93
2022-11-28T08:13:41.902Z,61.54
2022-11-28T08:14:42.223Z,60.17
2022-11-28T08:15:41.799Z,58.46
2022-11-28T08:16:41.844Z,61.33
2022-11-28T08:17:41.806Z,61.02
2022-11-28T08:18:41.756Z,61.06
2022-11-28T08:19:41.741Z,62.08
2022-11-28T08:20:41.741Z,65.17
2022-11-28T08:21:41.727Z,59.98
2022-11-28T08:22:41.736Z,59.15
2022-11-28T08:23:41.711Z,61.19
2022-11-28T08:24:42.002Z,60.93
2022-11-28T08:25:41.701Z,60.17
2022-11-28T08:26:41.709Z,62.67
2022-11-28T08:27:41.685Z,62.52
2022-11-28T08:31:49.892Z,58.73
2022-11-28T08:32:49.891Z,62.80
2022-11-28T08:33:49.856Z,58.94
2022-11-28T08:34:49.841Z,58.77
2022-11-28T08:35:49.838Z,59.77
2022-11-28T08:36:49.828Z,60.26
2022-11-28T08:37:49.811Z,61.25
2022-11-28T08:39:03.491Z,61.15
2022-11-28T08:39:51.971Z,59.72
2022-11-28T08:40:50.909Z,59.86
2022-11-28T08:41:50.914Z,60.11
2022-11-28T08:42:50.898Z,60.40
2022-11-28T08:43:50.884Z,60.57
2022-11-28T08:45:22.793Z,60.10
2022-11-28T08:45:50.896Z,62.29
2022-11-28T08:46:50.955Z,59.05
2022-11-28T08:47:50.847Z,62.64
2022-11-28T08:48:50.836Z,63.14
2022-11-28T08:49:50.849Z,62.34
2022-11-28T08:50:50.825Z,59.65
2022-11-28T08:51:50.828Z,60.61
2022-11-28T08:52:50.833Z,61.40
2022-11-28T08:53:54.977Z,65.26
2022-11-28T08:54:51.776Z,59.72
2022-11-28T08:55:50.768Z,59.08
2022-11-28T08:56:51.768Z,61.16
2022-11-28T08:57:50.766Z,60.32
2022-11-28T08:58:50.730Z,59.59
2022-11-28T08:59:50.728Z,60.08
2022-11-28T09:00:50.743Z,61.49
2022-11-28T09:01:50.778Z,58.55
2022-11-28T09:02:50.709Z,59.39
2022-11-28T09:03:50.857Z,61.16
2022-11-28T09:04:50.684Z,60.42
2022-11-28T09:05:50.683Z,61.76
2022-11-28T09:06:50.711Z,61.21
2022-11-28T09:07:50.710Z,61.00
2022-11-28T09:08:50.638Z,58.09
2022-11-28T09:09:50.623Z,59.06
2022-11-28T09:10:50.651Z,58.00
2022-11-28T09:11:50.619Z,59.11
2022-11-28T09:12:50.626Z,59.09
2022-11-28T09:13:50.591Z,59.91
2022-11-28T09:14:50.583Z,58.72
2022-11-28T09:15:52.745Z,58.53
2022-11-28T09:16:51.644Z,59.76
2022-11-28T09:17:50.573Z,58.48
2022-11-28T09:18:50.526Z,61.10
2022-11-28T09:19:50.532Z,58.79
2022-11-28T09:20:50.562Z,58.22
2022-11-28T09:21:56.169Z,59.21
2022-11-28T09:22:51.507Z,58.64
2022-11-28T09:23:50.499Z,58.07
2022-11-28T09:24:50.490Z,61.22
2022-11-28T09:25:50.487Z,60.14
2022-11-28T09:26:50.474Z,61.06
2022-11-28T09:27:50.465Z,66.36
2022-11-28T09:28:50.446Z,60.99
2022-11-28T09:29:50.444Z,65.33
2022-11-28T09:30:50.470Z,64.53
2022-11-28T09:31:50.425Z,59.00
2022-11-28T09:32:50.404Z,59.46
2022-11-28T09:33:50.407Z,59.66
2022-11-28T09:34:50.406Z,60.04
2022-11-28T09:35:50.379Z,60.15
2022-11-28T09:36:50.374Z,59.41
2022-11-28T09:37:50.361Z,59.50
2022-11-28T09:38:50.376Z,61.12
2022-11-28T09:40:11.925Z,59.84
2022-11-28T09:40:52.322Z,62.33
2022-11-28T09:41:50.337Z,59.53
2022-11-28T09:42:50.309Z,60.85
2022-11-28T09:43:54.710Z,63.48
2022-11-28T09:44:51.291Z,61.54
2022-11-28T09:45:50.290Z,59.35
2022-11-28T09:46:50.293Z,60.63
2022-11-28T09:47:50.264Z,59.64
2022-11-28T09:48:50.257Z,61.79
2022-11-28T09:49:50.272Z,60.71
2022-11-28T09:50:50.248Z,59.00
2022-11-28T09:51:50.223Z,59.44
2022-11-28T09:52:50.286Z,59.18
2022-11-28T09:53:50.199Z,60.93
2022-11-28T09:54:50.247Z,60.92
2022-11-28T09:55:50.188Z,59.75
2022-11-28T09:56:50.170Z,57.77
2022-11-28T09:57:50.177Z,60.07
2022-11-28T09:58:50.153Z,57.79
2022-11-28T09:59:50.146Z,58.49
2022-11-28T10:00:54.163Z,59.12
2022-11-28T10:01:51.129Z,58.71
2022-11-28T10:02:50.121Z,60.07
2022-11-28T10:03:50.160Z,56.81
2022-11-28T10:04:50.227Z,58.82
2022-11-28T10:05:50.102Z,60.08
2022-11-28T10:06:50.092Z,58.54
2022-11-28T10:07:54.813Z,58.51
2022-11-28T10:08:52.050Z,61.34
2022-11-28T10:09:50.051Z,60.56
2022-11-28T10:10:50.050Z,61.00
2022-11-28T10:11:50.030Z,59.62
2022-11-28T10:12:50.041Z,59.71
2022-11-28T10:14:08.811Z,58.33
2022-11-28T10:14:52.011Z,59.11
2022-11-28T10:15:50.018Z,61.11
2022-11-28T10:16:50.012Z,58.93
2022-11-28T10:17:49.967Z,60.70
2022-11-28T10:18:49.954Z,58.97
2022-11-28T10:19:54.672Z,59.90
2022-11-28T10:20:51.973Z,59.36
2022-11-28T10:21:49.925Z,59.08
2022-11-28T10:22:49.922Z,58.75
2022-11-28T10:23:49.905Z,60.53
2022-11-28T10:24:49.899Z,59.09
2022-11-28T10:25:49.903Z,61.78
2022-11-28T10:26:49.867Z,59.47
2022-11-28T10:27:50.875Z,59.88
2022-11-28T10:28:49.860Z,62.87
2022-11-28T10:29:49.856Z,58.31
2022-11-28T10:30:49.884Z,58.50
2022-11-28T10:31:49.847Z,58.78
2022-11-28T10:32:49.817Z,59.15
2022-11-28T10:33:49.814Z,59.19
2022-11-28T10:34:49.794Z,61.92
2022-11-28T10:35:49.790Z,58.68
2022-11-28T10:36:49.837Z,59.22
2022-11-28T10:37:49.759Z,59.76
2022-11-28T10:38:49.776Z,58.09
2022-11-28T10:39:49.744Z,58.89
2022-11-28T10:40:49.736Z,59.90
2022-11-28T10:41:49.747Z,58.20
2022-11-28T10:42:49.720Z,59.36
2022-11-28T10:43:49.718Z,59.93
2022-11-28T10:44:49.698Z,61.47
2022-11-28T10:45:49.778Z,58.89
2022-11-28T10:46:49.698Z,60.13
2022-11-28T10:47:49.668Z,60.56
2022-11-28T10:48:49.664Z,60.00
2022-11-28T10:49:49.652Z,59.84
2022-11-28T10:50:49.643Z,59.42
2022-11-28T10:51:49.654Z,60.75
2022-11-28T10:52:49.631Z,64.31
2022-11-28T10:53:49.618Z,59.55
2022-11-28T10:54:49.606Z,60.52
2022-11-28T10:55:49.582Z,59.48
2022-11-28T10:56:49.603Z,59.67
2022-11-28T10:57:50.567Z,58.59
2022-11-28T10:58:49.564Z,58.94
2022-11-28T10:59:49.567Z,56.23
2022-11-28T11:00:49.543Z,57.58
2022-11-28T11:01:50.491Z,61.72
2022-11-28T11:02:49.536Z,60.98
2022-11-28T11:03:49.517Z,58.39
2022-11-28T11:04:49.542Z,59.90
2022-11-28T11:05:49.512Z,60.23
2022-11-28T11:07:07.597Z,58.48
2022-11-28T11:07:51.555Z,59.82
2022-11-28T11:08:49.463Z,58.23
2022-11-28T11:09:49.442Z,61.34
2022-11-28T11:10:49.433Z,58.59
2022-11-28T11:11:49.430Z,59.93
2022-11-28T11:12:49.441Z,58.44
2022-11-28T11:13:49.405Z,59.83
2022-11-28T11:14:49.402Z,61.96
2022-11-28T11:15:49.462Z,61.10
2022-11-28T11:16:49.382Z,58.78
2022-11-28T11:17:49.372Z,58.55
2022-11-28T11:18:49.383Z,59.33
2022-11-28T11:19:49.344Z,60.41
2022-11-28T11:20:49.332Z,62.15
2022-11-28T11:21:49.334Z,58.46
2022-11-28T11:22:49.311Z,57.02
2022-11-28T11:23:49.324Z,59.75
2022-11-28T11:24:49.305Z,62.16
2022-11-28T11:25:49.291Z,58.96
2022-11-28T11:26:49.284Z,58.71
2022-11-28T11:27:49.324Z,57.22
2022-11-28T11:28:49.269Z,59.77
2022-11-28T11:29:51.495Z,59.02
2022-11-28T11:30:50.286Z,58.89
2022-11-28T11:31:49.225Z,58.81
2022-11-28T11:32:51.609Z,60.00
2022-11-28T11:33:50.208Z,60.79
2022-11-28T11:34:49.207Z,62.80
2022-11-28T11:35:49.201Z,59.96
2022-11-28T11:36:49.171Z,58.33
2022-11-28T11:37:49.155Z,59.36
2022-11-28T11:38:49.456Z,58.98
2022-11-28T11:39:49.138Z,59.35
2022-11-28T11:40:49.153Z,61.22
2022-11-28T11:41:49.132Z,60.08
2022-11-28T11:42:49.105Z,62.42
2022-11-28T11:43:49.134Z,65.91
2022-11-28T11:44:49.097Z,60.34
2022-11-28T11:45:52.500Z,59.53
2022-11-28T11:46:49.132Z,58.84
2022-11-28T11:47:49.061Z,59.93
2022-11-28T11:48:49.111Z,59.65
2022-11-28T11:49:49.056Z,60.49
2022-11-28T11:50:49.022Z,61.29
2022-11-28T11:51:49.022Z,59.75
2022-11-28T11:52:49.012Z,59.10
2022-11-28T11:53:49.003Z,60.30
2022-11-28T11:54:49.021Z,59.43
2022-11-28T11:55:48.985Z,63.43
2022-11-28T11:56:53.568Z,59.31
2022-11-28T11:57:50.968Z,58.24
2022-11-28T11:58:48.949Z,60.31
2022-11-28T11:59:48.947Z,59.46
2022-11-28T12:00:48.961Z,58.20
2022-11-28T12:01:49.001Z,60.22
2022-11-28T12:02:48.984Z,59.59
2022-11-28T12:03:48.945Z,59.01
2022-11-28T12:04:53.847Z,59.55
2022-11-28T12:06:15.429Z,60.69
2022-11-28T12:06:50.885Z,59.43
2022-11-28T12:07:48.886Z,57.32
2022-11-28T12:08:48.864Z,58.45
2022-11-28T12:09:48.833Z,60.64
2022-11-28T12:10:48.847Z,59.01
2022-11-28T12:11:48.823Z,65.63
2022-11-28T12:12:48.812Z,60.09
2022-11-28T12:13:48.812Z,62.69
2022-11-28T12:14:48.812Z,59.23
2022-11-28T12:15:48.823Z,58.50
2022-11-28T12:16:48.763Z,58.90
2022-11-28T12:17:51.440Z,59.07
2022-11-28T12:18:48.784Z,59.94
2022-11-28T12:19:48.757Z,58.67
2022-11-28T12:20:48.736Z,56.84
2022-11-28T12:21:48.726Z,59.39
2022-11-28T12:22:48.725Z,59.73
2022-11-28T12:23:48.694Z,60.00
2022-11-28T12:24:48.879Z,66.17
2022-11-28T12:25:48.667Z,57.75
2022-11-28T12:26:48.659Z,59.12
2022-11-28T12:27:48.651Z,66.48
2022-11-28T12:28:48.650Z,58.87
2022-11-28T12:29:48.659Z,59.51
2022-11-28T12:30:48.625Z,57.75
2022-11-28T12:31:48.611Z,59.71
2022-11-28T12:32:48.595Z,63.98
2022-11-28T12:33:48.614Z,60.71
2022-11-28T12:34:48.583Z,57.30
2022-11-28T12:35:48.579Z,58.67
2022-11-28T12:36:48.564Z,58.80
2022-11-28T12:38:10.319Z,59.38
2022-11-28T12:38:50.568Z,59.54
2022-11-28T12:39:48.542Z,57.86
2022-11-28T12:40:48.532Z,59.08
2022-11-28T12:41:48.513Z,60.45
2022-11-28T12:42:48.515Z,57.87
2022-11-28T12:43:48.507Z,59.54
2022-11-28T12:44:48.518Z,58.47
2022-11-28T12:45:48.491Z,61.04
2022-11-28T12:46:48.499Z,57.78
2022-11-28T12:47:48.452Z,60.11
2022-11-28T12:48:52.998Z,57.84
2022-11-28T12:49:50.443Z,59.69
2022-11-28T12:50:48.437Z,61.12
2022-11-28T12:51:48.414Z,60.29
2022-11-28T12:52:48.461Z,59.79
2022-11-28T12:53:48.395Z,61.85
2022-11-28T12:54:48.390Z,58.83
2022-11-28T12:55:48.383Z,58.87